Time,TemperatureF,DewpointF,PressureIn,WindDirection,WindDirectionDegrees,WindSpeedMPH,WindSpeedGustMPH,Humidity,HourlyPrecipIn,Conditions,Clouds,dailyrainin,SolarRadiationWatts/m^2,SoftwareType,DateUTC
2013-07-27 00:00:00,48.0,48.0,-100.00,SW,219,15.0,20.0,100,0.00,,,0.00,0.000000,,2013-07-27 07:00:00,
2013-07-27 00:34:00,48.0,48.0,-100.00,SW,219,15.0,20.0,100,0.00,,,0.00,0.000000,,2013-07-27 07:34:00,
2013-07-27 00:44:00,48.0,48.0,-100.00,SW,219,15.0,20.0,100,0.00,,,0.00,0.000000,,2013-07-27 07:44:00,
2013-07-27 00:52:00,48.0,48.0,-100.00,SW,219,15.0,20.0,100,0.00,,,0.00,0.000000,,2013-07-27 07:52:00,
2013-07-27 01:00:00,46.0,46.0,-100.00,SW,215,13.0,20.0,100,0.00,,,0.00,0.000000,,2013-07-27 08:00:00,
2013-07-27 01:32:00,46.0,46.0,-100.00,SW,215,13.0,20.0,100,0.00,,,0.00,0.000000,,2013-07-27 08:32:00,
2013-07-27 01:43:00,46.0,46.0,-100.00,SW,215,13.0,20.0,100,0.00,,,0.00,0.000000,,2013-07-27 08:43:00,
2013-07-27 01:53:00,46.0,46.0,-100.00,SW,215,13.0,20.0,100,0.00,,,0.00,0.000000,,2013-07-27 08:53:00,
2013-07-27 02:00:00,46.0,46.0,-100.00,SW,216,15.0,21.0,100,0.00,,,0.00,0.000000,,2013-07-27 09:00:00,
2013-07-27 02:33:00,46.0,46.0,-100.00,SW,216,15.0,21.0,100,0.00,,,0.00,0.000000,,2013-07-27 09:33:00,
2013-07-27 02:44:00,46.0,46.0,-100.00,SW,216,15.0,21.0,100,0.00,,,0.00,0.000000,,2013-07-27 09:44:00,
2013-07-27 02:52:00,46.0,46.0,-100.00,SW,216,15.0,21.0,100,0.00,,,0.00,0.000000,,2013-07-27 09:52:00,
2013-07-27 03:00:00,46.0,46.0,-100.00,SW,216,13.0,19.0,100,0.00,,,0.00,0.000000,,2013-07-27 10:00:00,
2013-07-27 03:32:00,46.0,46.0,-100.00,SW,216,13.0,19.0,100,0.00,,,0.00,0.000000,,2013-07-27 10:32:00,
2013-07-27 03:43:00,46.0,46.0,-100.00,SW,216,13.0,19.0,100,0.00,,,0.00,0.000000,,2013-07-27 10:43:00,
2013-07-27 03:52:00,46.0,46.0,-100.00,SW,216,13.0,19.0,100,0.00,,,0.00,0.000000,,2013-07-27 10:52:00,
2013-07-27 04:00:00,47.0,47.0,-100.00,SW,216,15.0,20.0,100,0.00,,,0.00,0.000000,,2013-07-27 11:00:00,
2013-07-27 04:32:00,47.0,47.0,-100.00,SW,216,15.0,20.0,100,0.00,,,0.00,0.000000,,2013-07-27 11:32:00,
2013-07-27 04:44:00,47.0,47.0,-100.00,SW,216,15.0,20.0,100,0.00,,,0.00,0.000000,,2013-07-27 11:44:00,
2013-07-27 04:52:00,47.0,47.0,-100.00,SW,216,15.0,20.0,100,0.00,,,0.00,0.000000,,2013-07-27 11:52:00,
2013-07-27 05:00:00,45.0,45.0,-100.00,SW,217,14.0,19.0,100,0.00,,,0.00,0.000000,,2013-07-27 12:00:00,
2013-07-27 05:33:00,45.0,45.0,-100.00,SW,217,14.0,19.0,100,0.00,,,0.00,0.000000,,2013-07-27 12:33:00,
2013-07-27 05:43:00,45.0,45.0,-100.00,SW,217,14.0,19.0,100,0.00,,,0.00,0.000000,,2013-07-27 12:43:00,
2013-07-27 05:52:00,45.0,45.0,-100.00,SW,217,14.0,19.0,100,0.00,,,0.00,0.000000,,2013-07-27 12:52:00,
2013-07-27 06:00:00,47.0,47.0,-100.00,SSW,210,12.0,16.0,100,0.00,,,0.00,3.000000,,2013-07-27 13:00:00,
2013-07-27 06:32:00,47.0,47.0,-100.00,SSW,210,12.0,16.0,100,0.00,,,0.00,3.000000,,2013-07-27 13:32:00,
2013-07-27 06:44:00,47.0,47.0,-100.00,SSW,210,12.0,16.0,100,0.00,,,0.00,3.000000,,2013-07-27 13:44:00,
2013-07-27 06:53:00,47.0,47.0,-100.00,SSW,210,12.0,16.0,100,0.00,,,0.00,3.000000,,2013-07-27 13:53:00,
2013-07-27 07:00:00,50.0,50.0,-100.00,SSW,198,11.0,17.0,100,0.00,,,0.00,99.000000,,2013-07-27 14:00:00,
2013-07-27 07:33:00,50.0,50.0,-100.00,SSW,198,11.0,17.0,100,0.00,,,0.00,99.000000,,2013-07-27 14:33:00,
2013-07-27 07:44:00,50.0,50.0,-100.00,SSW,198,11.0,17.0,100,0.00,,,0.00,99.000000,,2013-07-27 14:44:00,
2013-07-27 07:54:00,50.0,50.0,-100.00,SSW,198,11.0,17.0,100,0.00,,,0.00,99.000000,,2013-07-27 14:54:00,
2013-07-27 08:00:00,61.0,50.0,-100.00,East,89,6.0,12.0,66,0.00,,,0.00,276.000000,,2013-07-27 15:00:00,
2013-07-27 08:33:00,61.0,50.0,-100.00,East,89,6.0,12.0,66,0.00,,,0.00,276.000000,,2013-07-27 15:33:00,
2013-07-27 08:44:00,61.0,50.0,-100.00,East,89,6.0,12.0,66,0.00,,,0.00,276.000000,,2013-07-27 15:44:00,
2013-07-27 08:53:00,61.0,50.0,-100.00,East,89,6.0,12.0,66,0.00,,,0.00,276.000000,,2013-07-27 15:53:00,
2013-07-27 09:00:00,62.0,47.0,-100.00,East,79,9.0,14.0,57,0.00,,,0.00,478.000000,,2013-07-27 16:00:00,
2013-07-27 09:33:00,62.0,47.0,-100.00,East,79,9.0,14.0,57,0.00,,,0.00,478.000000,,2013-07-27 16:33:00,
2013-07-27 09:43:00,62.0,47.0,-100.00,East,79,9.0,14.0,57,0.00,,,0.00,478.000000,,2013-07-27 16:43:00,
2013-07-27 09:54:00,62.0,47.0,-100.00,East,79,9.0,14.0,57,0.00,,,0.00,478.000000,,2013-07-27 16:54:00,
2013-07-27 10:00:00,65.0,50.0,-100.00,ENE,67,7.0,13.0,58,0.00,,,0.00,674.000000,,2013-07-27 17:00:00,
2013-07-27 10:32:00,65.0,50.0,-100.00,ENE,67,7.0,13.0,58,0.00,,,0.00,674.000000,,2013-07-27 17:32:00,
2013-07-27 10:43:00,65.0,50.0,-100.00,ENE,67,7.0,13.0,58,0.00,,,0.00,674.000000,,2013-07-27 17:43:00,
2013-07-27 10:53:00,65.0,50.0,-100.00,ENE,67,7.0,13.0,58,0.00,,,0.00,674.000000,,2013-07-27 17:53:00,
2013-07-27 11:00:00,71.0,54.0,-100.00,East,82,5.0,16.0,54,0.00,,,0.00,846.000000,,2013-07-27 18:00:00,
2013-07-27 11:33:00,71.0,54.0,-100.00,East,82,5.0,16.0,54,0.00,,,0.00,846.000000,,2013-07-27 18:33:00,
2013-07-27 11:43:00,71.0,54.0,-100.00,East,82,5.0,16.0,54,0.00,,,0.00,846.000000,,2013-07-27 18:43:00,
2013-07-27 11:53:00,71.0,54.0,-100.00,East,82,5.0,16.0,54,0.00,,,0.00,846.000000,,2013-07-27 18:53:00,
2013-07-27 12:00:00,70.0,53.0,-100.00,ENE,63,3.0,11.0,54,0.00,,,0.00,975.000000,,2013-07-27 19:00:00,
2013-07-27 12:32:00,70.0,53.0,-100.00,ENE,63,3.0,11.0,54,0.00,,,0.00,975.000000,,2013-07-27 19:32:00,
2013-07-27 12:43:00,70.0,53.0,-100.00,ENE,63,3.0,11.0,54,0.00,,,0.00,975.000000,,2013-07-27 19:43:00,
2013-07-27 12:53:00,70.0,53.0,-100.00,ENE,63,3.0,11.0,54,0.00,,,0.00,975.000000,,2013-07-27 19:53:00,
2013-07-27 13:00:00,72.0,52.0,-100.00,SSE,161,0.0,7.0,50,0.00,,,0.00,1050.000000,,2013-07-27 20:00:00,
2013-07-27 13:32:00,72.0,52.0,-100.00,SSE,161,0.0,7.0,50,0.00,,,0.00,1050.000000,,2013-07-27 20:32:00,
2013-07-27 13:43:00,72.0,52.0,-100.00,SSE,161,0.0,7.0,50,0.00,,,0.00,1050.000000,,2013-07-27 20:43:00,
2013-07-27 13:52:00,72.0,52.0,-100.00,SSE,161,0.0,7.0,50,0.00,,,0.00,1050.000000,,2013-07-27 20:52:00,
2013-07-27 14:43:00,76.0,55.0,-100.00,South,173,1.0,7.0,48,0.00,,,0.00,1073.000000,,2013-07-27 21:43:00,
2013-07-27 14:52:00,76.0,55.0,-100.00,South,173,1.0,7.0,48,0.00,,,0.00,1073.000000,,2013-07-27 21:52:00,
2013-07-27 15:00:00,75.0,54.0,-100.00,SSW,212,1.0,10.0,48,0.00,,,0.00,1071.000000,,2013-07-27 22:00:00,
2013-07-27 15:33:00,75.0,54.0,-100.00,SSW,212,1.0,10.0,48,0.00,,,0.00,1071.000000,,2013-07-27 22:33:00,
2013-07-27 15:43:00,75.0,54.0,-100.00,SSW,212,1.0,10.0,48,0.00,,,0.00,1071.000000,,2013-07-27 22:43:00,
2013-07-27 15:53:00,75.0,54.0,-100.00,SSW,212,1.0,10.0,48,0.00,,,0.00,1071.000000,,2013-07-27 22:53:00,
2013-07-27 16:00:00,72.0,54.0,-100.00,SSW,208,5.0,10.0,54,-99.99,,,0.00,957.000000,,2013-07-27 23:00:00,
2013-07-27 16:32:00,72.0,54.0,-100.00,SSW,208,5.0,10.0,54,-99.99,,,0.00,957.000000,,2013-07-27 23:32:00,
2013-07-27 16:44:00,72.0,54.0,-100.00,SSW,208,5.0,10.0,54,-99.99,,,0.00,957.000000,,2013-07-27 23:44:00,
2013-07-27 16:53:00,72.0,54.0,-100.00,SSW,208,5.0,10.0,54,-99.99,,,0.00,957.000000,,2013-07-27 23:53:00,
2013-07-27 17:00:00,68.0,53.0,-100.00,SW,222,5.0,11.0,59,0.00,,,0.00,814.000000,,2013-07-28 00:00:00,
2013-07-27 17:32:00,68.0,53.0,-100.00,SW,222,5.0,11.0,59,0.00,,,0.00,814.000000,,2013-07-28 00:32:00,
2013-07-27 17:44:00,68.0,53.0,-100.00,SW,222,5.0,11.0,59,0.00,,,0.00,814.000000,,2013-07-28 00:44:00,
2013-07-27 17:53:00,68.0,53.0,-100.00,SW,222,5.0,11.0,59,0.00,,,0.00,814.000000,,2013-07-28 00:53:00,
2013-07-27 18:00:00,64.0,52.0,-100.00,SW,231,6.0,12.0,65,0.00,,,0.00,640.000000,,2013-07-28 01:00:00,
2013-07-27 18:23:00,64.0,52.0,-100.00,SW,231,6.0,12.0,65,0.00,,,0.00,640.000000,,2013-07-28 01:23:00,
2013-07-27 18:32:00,64.0,52.0,-100.00,SW,231,6.0,12.0,65,0.00,,,0.00,640.000000,,2013-07-28 01:32:00,
2013-07-27 18:43:00,64.0,52.0,-100.00,SW,231,6.0,12.0,65,0.00,,,0.00,640.000000,,2013-07-28 01:43:00,
2013-07-27 18:53:00,64.0,52.0,-100.00,SW,231,6.0,12.0,65,0.00,,,0.00,640.000000,,2013-07-28 01:53:00,
2013-07-27 19:00:00,60.0,51.0,-100.00,WSW,237,4.0,11.0,73,0.00,,,0.00,432.000000,,2013-07-28 02:00:00,
2013-07-27 19:32:00,60.0,51.0,-100.00,WSW,237,4.0,11.0,73,0.00,,,0.00,432.000000,,2013-07-28 02:32:00,
2013-07-27 19:42:00,60.0,51.0,-100.00,WSW,237,4.0,11.0,73,0.00,,,0.00,432.000000,,2013-07-28 02:42:00,
2013-07-27 19:53:00,60.0,51.0,-100.00,WSW,237,4.0,11.0,73,0.00,,,0.00,432.000000,,2013-07-28 02:53:00,
2013-07-27 20:00:00,56.0,50.0,-100.00,SW,221,9.0,12.0,81,0.00,,,0.00,40.000000,,2013-07-28 03:00:00,
2013-07-27 20:32:00,56.0,50.0,-100.00,SW,221,9.0,12.0,81,0.00,,,0.00,40.000000,,2013-07-28 03:32:00,
2013-07-27 20:42:00,56.0,50.0,-100.00,SW,221,9.0,12.0,81,0.00,,,0.00,40.000000,,2013-07-28 03:42:00,
2013-07-27 20:53:00,56.0,50.0,-100.00,SW,221,9.0,12.0,81,0.00,,,0.00,40.000000,,2013-07-28 03:53:00,
2013-07-27 21:00:00,54.0,48.0,-100.00,SW,223,10.0,14.0,81,0.00,,,0.00,13.000000,,2013-07-28 04:00:00,
2013-07-27 21:32:00,54.0,48.0,-100.00,SW,223,10.0,14.0,81,0.00,,,0.00,13.000000,,2013-07-28 04:32:00,
2013-07-27 21:43:00,54.0,48.0,-100.00,SW,223,10.0,14.0,81,0.00,,,0.00,13.000000,,2013-07-28 04:43:00,
2013-07-27 21:53:00,54.0,48.0,-100.00,SW,223,10.0,14.0,81,0.00,,,0.00,13.000000,,2013-07-28 04:53:00,
2013-07-27 22:00:00,54.0,46.0,-100.00,SW,222,11.0,16.0,73,0.00,,,0.00,0.000000,,2013-07-28 05:00:00,
2013-07-27 22:32:00,54.0,46.0,-100.00,SW,222,11.0,16.0,73,0.00,,,0.00,0.000000,,2013-07-28 05:32:00,
2013-07-27 22:43:00,54.0,46.0,-100.00,SW,222,11.0,16.0,73,0.00,,,0.00,0.000000,,2013-07-28 05:43:00,
2013-07-27 22:53:00,54.0,46.0,-100.00,SW,222,11.0,16.0,73,0.00,,,0.00,0.000000,,2013-07-28 05:53:00,
2013-07-27 23:00:00,52.0,49.0,-100.00,SW,218,12.0,14.0,88,0.00,,,0.00,0.000000,,2013-07-28 06:00:00,
2013-07-27 23:32:00,52.0,49.0,-100.00,SW,218,12.0,14.0,88,0.00,,,0.00,0.000000,,2013-07-28 06:32:00,
2013-07-27 23:43:00,52.0,49.0,-100.00,SW,218,12.0,14.0,88,0.00,,,0.00,0.000000,,2013-07-28 06:43:00,
2013-07-27 23:52:00,52.0,49.0,-100.00,SW,218,12.0,14.0,88,0.00,,,0.00,0.000000,,2013-07-28 06:52:00,